Time;durP1;ratioP1;P1;durP2;ratioP2;P2;SDS_P1;SDS_P2;PMS_P1;PMS_P2;Temp;Humidity;BMP_temperature;BMP_pressure;BME280_temperature;BME280_humidity;BME280_pressure;Samples;Min_cycle;Max_cycle;Signal;HPM_P1;HPM_P2
2023/03/24 00:00:10;;;;;;;;;;;;;;;18.66;45.31;99747.16;4952771;28;98605;-64
2023/03/24 00:02:40;;;;;;;;;;;;;;;18.64;45.31;99742.03;4985367;27;101374;-67
2023/03/24 00:05:09;;;;;;;;;;;;;;;18.63;45.22;99742.38;4958140;28;98181;-64
2023/03/24 00:07:37;;;;;;;;;;;;;;;18.62;45.23;99738.84;4958267;28;98247;-67
2023/03/24 00:10:06;;;;;;;;;;;;;;;18.61;45.21;99739.97;4956728;28;98932;-63
2023/03/24 00:12:33;;;;;;;;;;;;;;;18.61;45.38;99744.66;4957372;28;98135;-64
2023/03/24 00:15:01;;;;;;;;;;;;;;;18.60;45.20;99749.31;4954695;28;97845;-66
2023/03/24 00:17:28;;;;;;;;;;;;;;;18.59;45.04;99744.19;4957639;28;99575;-64
2023/03/24 00:19:54;;;;;;;;;;;;;;;18.58;45.10;99742.59;4953497;28;98432;-64
2023/03/24 00:22:20;;;;;;;;;;;;;;;18.57;45.35;99741.78;4956241;28;97917;-64
2023/03/24 00:24:48;;;;;;;;;;;;;;;18.56;45.06;99740.22;4958012;28;118030;-64
2023/03/24 00:27:16;;;;;;;;;;;;;;;18.55;45.18;99735.88;4954398;28;98116;-64
2023/03/24 00:29:42;;;;;;;;;;;;;;;18.55;45.32;99737.78;4956528;28;98090;-67
2023/03/24 00:32:08;;;;;;;;;;;;;;;18.54;45.29;99734.28;4953631;28;99947;-66
2023/03/24 00:34:37;;;;;;;;;;;;;;;18.53;45.23;99726.44;4953087;28;97882;-67
2023/03/24 00:37:04;;;;;;;;;;;;;;;18.52;45.32;99722.91;4953563;28;99019;-64
2023/03/24 00:39:30;;;;;;;;;;;;;;;18.51;45.08;99729.50;4956147;28;99001;-66
2023/03/24 00:41:58;;;;;;;;;;;;;;;18.51;45.22;99721.34;4952972;28;124311;-67
2023/03/24 00:44:24;;;;;;;;;;;;;;;18.50;45.22;99727.09;4955961;28;97811;-63
2023/03/24 00:46:56;;;;;;;;;;;;;;;18.48;45.03;99716.53;4953121;28;127932;-64
2023/03/24 00:49:43;;;;;;;;;;;;;;;18.50;45.12;99713.47;4956597;28;98466;-64
2023/03/24 00:52:14;;;;;;;;;;;;;;;18.49;45.12;99704.47;4954835;28;97977;-67
2023/03/24 00:54:40;;;;;;;;;;;;;;;18.48;45.23;99705.63;4955622;28;98065;-66
2023/03/24 00:57:07;;;;;;;;;;;;;;;18.49;45.31;99703.69;4953793;27;99286;-63
2023/03/24 00:59:41;;;;;;;;;;;;;;;18.48;45.29;99697.44;4953847;28;98090;-67
2023/03/24 01:02:10;;;;;;;;;;;;;;;18.47;45.03;99687.66;4956043;28;97978;-63
2023/03/24 01:04:39;;;;;;;;;;;;;;;18.48;45.09;99689.25;4952673;28;97765;-63
2023/03/24 01:07:06;;;;;;;;;;;;;;;18.49;45.27;99684.59;4958015;28;98727;-66
2023/03/24 01:09:35;;;;;;;;;;;;;;;18.48;45.05;99683.81;4954001;28;98471;-67
2023/03/24 01:12:02;;;;;;;;;;;;;;;18.48;44.98;99677.56;4970430;27;98213;-64
2023/03/24 01:14:31;;;;;;;;;;;;;;;18.49;45.16;99679.13;4955724;28;97923;-67
2023/03/24 01:16:57;;;;;;;;;;;;;;;18.50;45.18;99678.78;4951519;28;119054;-63
2023/03/24 01:19:24;;;;;;;;;;;;;;;18.50;45.21;99669.81;4952418;27;121961;-63
2023/03/24 01:21:50;;;;;;;;;;;;;;;18.50;45.29;99662.41;4952676;28;98081;-64
2023/03/24 01:24:17;;;;;;;;;;;;;;;18.50;45.19;99664.34;4953272;28;116873;-67
2023/03/24 01:26:43;;;;;;;;;;;;;;;18.50;45.18;99656.16;4957650;28;99868;-64
2023/03/24 01:29:08;;;;;;;;;;;;;;;18.50;45.16;99653.44;4955465;28;102155;-63
2023/03/24 01:31:35;;;;;;;;;;;;;;;18.49;45.20;99658.09;4954921;28;127789;-64
2023/03/24 01:34:01;;;;;;;;;;;;;;;18.50;45.12;99656.97;4956096;28;98037;-67
2023/03/24 01:36:27;;;;;;;;;;;;;;;18.51;45.07;99655.84;4956975;27;109957;-67
2023/03/24 01:38:53;;;;;;;;;;;;;;;18.51;45.24;99642.19;4952685;28;98796;-67
2023/03/24 01:41:19;;;;;;;;;;;;;;;18.51;45.07;99638.66;4952844;28;98461;-65
2023/03/24 01:43:45;;;;;;;;;;;;;;;18.51;45.21;99635.91;4952728;28;98068;-63
2023/03/24 01:46:15;;;;;;;;;;;;;;;18.50;45.14;99635.13;4951844;28;128181;-67
2023/03/24 01:49:04;;;;;;;;;;;;;;;18.51;45.28;99625.81;4952873;28;98923;-66
2023/03/24 01:51:35;;;;;;;;;;;;;;;18.52;45.09;99630.13;4952889;28;98765;-67
2023/03/24 01:54:01;;;;;;;;;;;;;;;18.50;45.21;99613.31;4983045;27;97844;-63
2023/03/24 01:56:28;;;;;;;;;;;;;;;18.51;45.24;99616.81;4954176;28;98270;-66
2023/03/24 01:58:57;;;;;;;;;;;;;;;18.52;45.15;99612.97;4960745;28;101114;-67
2023/03/24 02:01:28;;;;;;;;;;;;;;;18.51;45.07;99611.38;4951442;28;102095;-67
2023/03/24 02:03:55;;;;;;;;;;;;;;;18.50;45.04;99596.94;4955672;28;98107;-63
2023/03/24 02:06:21;;;;;;;;;;;;;;;18.50;45.15;99602.38;4981651;27;124017;-63
2023/03/24 02:08:51;;;;;;;;;;;;;;;18.49;45.16;99598.06;4953182;28;126206;-67
2023/03/24 02:11:18;;;;;;;;;;;;;;;18.50;45.33;99598.88;4956105;28;97923;-63
2023/03/24 02:13:43;;;;;;;;;;;;;;;18.50;45.19;99594.19;4951898;28;104421;-67
2023/03/24 02:16:16;;;;;;;;;;;;;;;18.49;45.18;99594.56;4953718;28;125667;-66
2023/03/24 02:18:51;;;;;;;;;;;;;;;18.49;45.16;99591.81;4983128;27;99735;-64
2023/03/24 02:21:23;;;;;;;;;;;;;;;18.49;45.12;99598.06;4955821;28;97822;-63
2023/03/24 02:24:06;;;;;;;;;;;;;;;18.48;45.27;99587.50;4953610;28;98013;-63
2023/03/24 02:27:13;;;;;;;;;;;;;;;18.48;45.27;99587.50;4953565;28;98611;-64
2023/03/24 02:29:57;;;;;;;;;;;;;;;18.47;45.30;99581.25;4956010;28;98466;-63
2023/03/24 02:32:33;;;;;;;;;;;;;;;18.46;45.25;99585.09;4955601;28;101170;-67
2023/03/24 02:35:37;;;;;;;;;;;;;;;18.47;45.17;99586.72;4985189;27;110063;-67
2023/03/24 02:38:33;;;;;;;;;;;;;;;18.46;45.34;99578.84;4951057;28;117159;-68
2023/03/24 02:41:11;;;;;;;;;;;;;;;18.46;45.38;99582.38;4944316;28;98433;-64
2023/03/24 02:44:00;;;;;;;;;;;;;;;18.44;45.39;99579.22;4968946;27;105929;-66
2023/03/24 02:46:26;;;;;;;;;;;;;;;18.44;45.12;99583.88;4965469;27;111300;-67
2023/03/24 02:49:06;;;;;;;;;;;;;;;18.43;45.22;99585.00;4984972;27;126423;-67
2023/03/24 02:51:58;;;;;;;;;;;;;;;18.42;45.10;99578.75;4952110;28;98588;-66
2023/03/24 02:54:45;;;;;;;;;;;;;;;18.42;45.25;99588.84;4951202;28;100599;-66
2023/03/24 02:57:24;;;;;;;;;;;;;;;18.40;45.09;99581.03;4952162;28;99103;-67
2023/03/24 02:59:56;;;;;;;;;;;;;;;18.39;45.35;99579.41;4964914;28;98872;-63
2023/03/24 03:02:25;;;;;;;;;;;;;;;18.38;45.39;99572.38;4949871;28;127717;-64
2023/03/24 03:04:55;;;;;;;;;;;;;;;18.38;45.16;99572.38;4986628;27;98556;-64
2023/03/24 03:07:23;;;;;;;;;;;;;;;18.38;45.38;99564.97;4953672;28;98385;-66
2023/03/24 03:10:07;;;;;;;;;;;;;;;18.38;45.23;99566.91;4953781;28;99132;-64
2023/03/24 03:12:34;;;;;;;;;;;;;;;18.37;45.34;99562.59;4950907;28;99045;-64
2023/03/24 03:15:02;;;;;;;;;;;;;;;18.36;45.26;99556.34;4953219;28;98748;-66
2023/03/24 03:17:31;;;;;;;;;;;;;;;18.37;45.34;99554.41;4951228;28;97853;-64
2023/03/24 03:20:06;;;;;;;;;;;;;;;18.36;45.09;99550.91;4939232;28;98929;-67
2023/03/24 03:22:52;;;;;;;;;;;;;;;18.36;45.37;99550.13;4950682;28;100501;-63
2023/03/24 03:25:22;;;;;;;;;;;;;;;18.36;45.28;99556.34;4935488;28;117839;-66
2023/03/24 03:27:48;;;;;;;;;;;;;;;18.36;45.31;99556.34;4952207;28;107603;-65
2023/03/24 03:30:17;;;;;;;;;;;;;;;18.35;45.40;99557.50;4951794;28;98879;-67
2023/03/24 03:32:52;;;;;;;;;;;;;;;18.36;45.40;99555.56;4952986;28;98485;-66
2023/03/24 03:35:28;;;;;;;;;;;;;;;18.35;45.13;99556.69;4952448;28;98225;-67
2023/03/24 03:38:07;;;;;;;;;;;;;;;18.36;45.35;99555.56;4966531;27;102734;-64
2023/03/24 03:40:56;;;;;;;;;;;;;;;18.35;45.06;99557.50;4967302;27;98023;-66
2023/03/24 03:43:23;;;;;;;;;;;;;;;18.36;45.16;99563.75;4955314;28;99201;-66
2023/03/24 03:45:49;;;;;;;;;;;;;;;18.35;45.31;99553.97;4951528;28;97938;-67
2023/03/24 03:48:15;;;;;;;;;;;;;;;18.36;45.40;99558.28;4954134;28;97941;-67
2023/03/24 03:50:41;;;;;;;;;;;;;;;18.35;45.17;99567.59;4967806;27;98484;-65
2023/03/24 03:53:08;;;;;;;;;;;;;;;18.34;45.41;99566.81;4957249;27;128413;-65
2023/03/24 03:55:34;;;;;;;;;;;;;;;18.34;45.19;99558.63;4949506;28;98475;-66
2023/03/24 03:58:01;;;;;;;;;;;;;;;18.34;45.18;99555.09;4952454;28;98415;-66
2023/03/24 04:00:27;;;;;;;;;;;;;;;18.33;45.17;99551.59;4948764;28;124778;-65
2023/03/24 04:03:13;;;;;;;;;;;;;;;18.33;45.28;99545.34;4952278;28;128222;-65
2023/03/24 04:05:48;;;;;;;;;;;;;;;18.31;45.20;99556.59;4952108;28;126674;-65
2023/03/24 04:08:43;;;;;;;;;;;;;;;18.30;45.18;99537.81;4968588;28;98101;-65
2023/03/24 04:11:24;;;;;;;;;;;;;;;18.30;45.24;99526.91;4967234;27;98396;-65
2023/03/24 04:14:15;;;;;;;;;;;;;;;18.28;45.29;99526.47;4982714;27;98725;-65
2023/03/24 04:16:50;;;;;;;;;;;;;;;18.24;45.33;99529.09;4951994;28;99113;-66
2023/03/24 04:19:32;;;;;;;;;;;;;;;18.21;45.32;99529.75;4950105;28;98146;-65
2023/03/24 04:22:03;;;;;;;;;;;;;;;18.19;45.30;99536.69;4967289;27;98507;-66
2023/03/24 04:24:55;;;;;;;;;;;;;;;18.17;45.32;99539.75;4951679;28;99019;-65
2023/03/24 04:27:39;;;;;;;;;;;;;;;18.13;45.33;99526.00;4958903;28;115473;-67
2023/03/24 04:30:38;;;;;;;;;;;;;;;18.13;45.40;99536.13;4955253;28;98011;-64
2023/03/24 04:33:16;;;;;;;;;;;;;;;18.10;45.46;99528.63;4967953;27;98418;-64
2023/03/24 04:35:45;;;;;;;;;;;;;;;18.08;45.33;99523.50;4954701;28;98240;-67
2023/03/24 04:38:22;;;;;;;;;;;;;;;18.07;45.46;99521.09;4952133;28;124534;-66
2023/03/24 04:40:48;;;;;;;;;;;;;;;18.06;45.47;99523.03;4955578;28;97955;-66
2023/03/24 04:43:16;;;;;;;;;;;;;;;18.05;45.28;99512.50;4938452;28;98909;-64
2023/03/24 04:45:42;;;;;;;;;;;;;;;18.02;45.24;99513.16;4950657;28;98546;-64
2023/03/24 04:48:08;;;;;;;;;;;;;;;18.03;45.43;99503.84;4953503;28;120774;-66
2023/03/24 04:50:38;;;;;;;;;;;;;;;18.00;45.46;99499.06;4969699;28;109109;-64
2023/03/24 04:53:05;;;;;;;;;;;;;;;18.00;45.50;99499.06;4954834;28;98374;-64
2023/03/24 04:55:49;;;;;;;;;;;;;;;18.01;45.35;99500.66;4951978;28;99085;-66
2023/03/24 04:58:19;;;;;;;;;;;;;;;18.00;45.40;99490.88;4953084;28;97939;-63
2023/03/24 05:00:45;;;;;;;;;;;;;;;18.00;45.54;99499.06;4956805;28;111922;-67
2023/03/24 05:03:13;;;;;;;;;;;;;;;17.98;45.51;99493.97;4952776;28;127896;-64
2023/03/24 05:05:42;;;;;;;;;;;;;;;17.98;45.57;99499.41;4955909;28;99525;-64
2023/03/24 05:08:08;;;;;;;;;;;;;;;17.98;45.50;99495.88;4956516;28;98143;-64
2023/03/24 05:10:34;;;;;;;;;;;;;;;17.97;45.43;99494.31;4954759;28;117520;-63
2023/03/24 05:13:00;;;;;;;;;;;;;;;17.97;45.31;99495.09;4954423;28;106231;-64
2023/03/24 05:15:26;;;;;;;;;;;;;;;17.97;45.31;99494.31;4956478;28;111996;-63
2023/03/24 05:17:52;;;;;;;;;;;;;;;17.97;45.51;99499.75;4953143;28;121525;-65
2023/03/24 05:20:18;;;;;;;;;;;;;;;17.96;45.30;99481.78;4965991;28;98105;-63
2023/03/24 05:22:44;;;;;;;;;;;;;;;17.96;45.35;99482.63;4940529;28;111785;-65
2023/03/24 05:25:10;;;;;;;;;;;;;;;17.95;45.58;99478.28;4953788;28;127320;-66
2023/03/24 05:27:36;;;;;;;;;;;;;;;17.95;45.42;99472.81;4952672;28;100877;-65
2023/03/24 05:30:04;;;;;;;;;;;;;;;17.95;45.52;99475.53;4952648;28;118609;-66
2023/03/24 05:32:30;;;;;;;;;;;;;;;17.96;45.29;99485.34;4951611;28;99108;-63
2023/03/24 05:34:56;;;;;;;;;;;;;;;17.97;45.57;99483.41;4953989;28;98299;-66
2023/03/24 05:37:22;;;;;;;;;;;;;;;17.97;45.48;99480.69;4955175;28;127431;-66
2023/03/24 05:39:48;;;;;;;;;;;;;;;17.97;45.55;99475.22;4951023;28;101683;-63
2023/03/24 05:42:15;;;;;;;;;;;;;;;17.97;45.40;99472.50;4959152;28;98180;-66
2023/03/24 05:44:40;;;;;;;;;;;;;;;17.97;45.42;99467.03;4956330;28;98547;-66
2023/03/24 05:47:06;;;;;;;;;;;;;;;17.97;45.47;99462.38;4951605;28;128427;-66
2023/03/24 05:49:32;;;;;;;;;;;;;;;17.97;45.45;99459.66;4952302;28;117407;-66
2023/03/24 05:51:59;;;;;;;;;;;;;;;17.98;45.42;99452.28;4955132;28;126922;-65
2023/03/24 05:54:25;;;;;;;;;;;;;;;17.98;45.40;99444.09;4957101;28;98872;-63
2023/03/24 05:56:51;;;;;;;;;;;;;;;17.99;45.40;99437.50;4955409;28;98129;-63
2023/03/24 05:59:17;;;;;;;;;;;;;;;17.98;45.41;99433.97;4950930;28;117722;-64
2023/03/24 06:01:42;;;;;;;;;;;;;;;17.98;45.51;99433.97;4970887;27;127388;-64
2023/03/24 06:04:08;;;;;;;;;;;;;;;18.01;45.39;99435.25;4955633;28;128041;-64
2023/03/24 06:06:34;;;;;;;;;;;;;;;18.01;45.46;99432.50;4953826;28;126467;-63
2023/03/24 06:09:03;;;;;;;;;;;;;;;18.02;45.35;99428.63;4956716;28;97835;-66
2023/03/24 06:11:30;;;;;;;;;;;;;;;18.06;45.53;99429.53;4957346;28;98136;-66
2023/03/24 06:13:59;;;;;;;;;;;;;;;18.08;45.51;99427.28;4956901;28;98689;-66
2023/03/24 06:16:25;;;;;;;;;;;;;;;18.10;45.39;99414.88;4952351;28;98200;-63
2023/03/24 06:18:52;;;;;;;;;;;;;;;18.11;45.28;99407.50;4955502;28;98115;-66
2023/03/24 06:21:20;;;;;;;;;;;;;;;18.16;45.40;99412.72;4956021;28;98751;-66
2023/03/24 06:23:46;;;;;;;;;;;;;;;18.21;45.29;99400.78;4952066;28;126398;-63
2023/03/24 06:26:13;;;;;;;;;;;;;;;18.27;45.36;99394.72;4954569;28;110715;-66
2023/03/24 06:28:40;;;;;;;;;;;;;;;18.39;45.26;99385.72;4953251;28;98088;-65
2023/03/24 06:31:18;;;;;;;;;;;;;;;18.51;44.95;99390.34;4955071;28;98291;-63
2023/03/24 06:33:44;;;;;;;;;;;;;;;18.59;45.11;99384.78;4952367;28;98442;-66
2023/03/24 06:36:11;;;;;;;;;;;;;;;18.66;45.06;99378.72;4950670;28;114238;-66
2023/03/24 06:38:37;;;;;;;;;;;;;;;18.72;45.03;99371.91;4955619;28;98065;-63
2023/03/24 06:41:04;;;;;;;;;;;;;;;18.75;45.02;99370.44;4952057;28;98665;-64
2023/03/24 06:43:30;;;;;;;;;;;;;;;18.77;45.00;99371.66;4954687;28;98875;-67
2023/03/24 06:45:56;;;;;;;;;;;;;;;18.83;44.91;99372.19;4953833;28;98239;-62
2023/03/24 06:48:22;;;;;;;;;;;;;;;18.91;44.75;99367.72;4948942;28;117473;-64
2023/03/24 06:50:48;;;;;;;;;;;;;;;18.98;44.76;99370.63;4953135;28;120329;-66
2023/03/24 06:53:14;;;;;;;;;;;;;;;19.05;44.93;99374.34;4951362;28;111712;-65
2023/03/24 06:55:40;;;;;;;;;;;;;;;19.11;44.94;99378.41;4950964;28;98565;-66
2023/03/24 06:58:06;;;;;;;;;;;;;;;19.16;44.75;99377.38;4951239;28;117709;-66
2023/03/24 07:00:33;;;;;;;;;;;;;;;19.14;44.86;99368.75;4953563;28;125318;-64
2023/03/24 07:03:01;;;;;;;;;;;;;;;19.12;44.77;99368.28;4951588;28;98897;-66
2023/03/24 07:05:27;;;;;;;;;;;;;;;19.17;44.98;99369.97;4952088;28;98291;-66
2023/03/24 07:07:53;;;;;;;;;;;;;;;19.16;44.91;99377.38;4952146;28;102339;-64
2023/03/24 07:10:20;;;;;;;;;;;;;;;19.17;44.87;99378.94;4963172;28;129362;-66
2023/03/24 07:12:47;;;;;;;;;;;;;;;19.19;44.93;99384.88;4951203;28;98740;-67
2023/03/24 07:15:12;;;;;;;;;;;;;;;19.18;45.10;99375.09;4952030;28;97841;-66
2023/03/24 07:17:40;;;;;;;;;;;;;;;19.17;45.20;99375.41;4953462;28;104018;-64
2023/03/24 07:20:07;;;;;;;;;;;;;;;19.15;44.90;99370.31;4952802;28;98230;-67
2023/03/24 07:22:36;;;;;;;;;;;;;;;19.20;45.00;99374.72;4953994;28;98198;-65
2023/03/24 07:25:03;;;;;;;;;;;;;;;19.22;45.23;99362.31;4953143;28;97993;-64
2023/03/24 07:27:31;;;;;;;;;;;;;;;19.23;44.98;99361.16;4954942;28;98002;-64
2023/03/24 07:29:58;;;;;;;;;;;;;;;19.31;45.03;99362.94;4953116;28;99266;-65
2023/03/24 07:32:24;;;;;;;;;;;;;;;19.46;44.67;99357.81;4953094;28;99436;-66
2023/03/24 07:34:50;;;;;;;;;;;;;;;19.56;44.67;99355.34;4952626;28;124541;-66
2023/03/24 07:37:16;;;;;;;;;;;;;;;19.63;44.75;99349.28;4951123;28;118324;-64
2023/03/24 07:39:42;;;;;;;;;;;;;;;19.62;44.78;99347.69;4951202;28;129115;-64
2023/03/24 07:42:08;;;;;;;;;;;;;;;19.62;44.85;99339.50;4949766;28;126131;-64
2023/03/24 07:44:34;;;;;;;;;;;;;;;19.61;44.89;99337.91;4964918;28;128624;-64
2023/03/24 07:47:00;;;;;;;;;;;;;;;19.61;44.90;99340.63;4953994;28;98140;-66
2023/03/24 07:49:26;;;;;;;;;;;;;;;19.59;44.97;99330.03;4948765;28;128108;-64
2023/03/24 07:51:52;;;;;;;;;;;;;;;19.60;44.94;99328.88;4953707;28;98092;-66
2023/03/24 07:54:18;;;;;;;;;;;;;;;19.64;44.89;99328.22;4950425;28;97920;-64
2023/03/24 07:56:44;;;;;;;;;;;;;;;19.63;44.97;99327.41;4948945;28;119071;-66
2023/03/24 07:59:10;;;;;;;;;;;;;;;19.66;45.00;99328.66;4950941;28;98394;-64
2023/03/24 08:01:36;;;;;;;;;;;;;;;19.71;44.84;99325.66;4956499;28;128488;-64
2023/03/24 08:04:05;;;;;;;;;;;;;;;19.77;44.82;99329.69;4954514;28;98549;-66
2023/03/24 08:06:30;;;;;;;;;;;;;;;19.76;44.98;99339.03;4956247;28;98050;-64
2023/03/24 08:08:56;;;;;;;;;;;;;;;19.81;44.81;99323.16;4953769;28;127863;-66
2023/03/24 08:11:22;;;;;;;;;;;;;;;19.92;44.65;99326.13;4954792;28;126799;-65
2023/03/24 08:13:48;;;;;;;;;;;;;;;20.02;44.72;99324.78;4955706;28;107807;-66
2023/03/24 08:16:14;;;;;;;;;;;;;;;20.20;44.46;99327.88;4954370;28;116318;-65
2023/03/24 08:18:40;;;;;;;;;;;;;;;20.43;44.25;99317.00;4957017;28;98655;-66
2023/03/24 08:21:06;;;;;;;;;;;;;;;20.56;44.25;99319.28;4955221;28;100874;-65
2023/03/24 08:23:32;;;;;;;;;;;;;;;20.60;44.35;99319.34;4958140;28;126718;-64
2023/03/24 08:25:58;;;;;;;;;;;;;;;20.70;44.27;99326.16;4960160;28;97828;-64
2023/03/24 08:28:24;;;;;;;;;;;;;;;20.63;44.60;99326.81;4955273;28;128197;-64
2023/03/24 08:30:50;;;;;;;;;;;;;;;20.66;44.42;99325.31;4955042;28;128022;-64
2023/03/24 08:33:16;;;;;;;;;;;;;;;20.76;44.42;99327.47;4955352;28;127732;-65
2023/03/24 08:35:44;;;;;;;;;;;;;;;20.89;44.43;99325.34;4959514;28;114240;-65
2023/03/24 08:38:10;;;;;;;;;;;;;;;20.93;44.50;99337.94;4954707;28;98216;-66
2023/03/24 08:40:38;;;;;;;;;;;;;;;21.01;44.36;99339.66;4957237;28;98154;-67
2023/03/24 08:43:07;;;;;;;;;;;;;;;21.23;44.35;99334.56;4953596;28;98028;-67
2023/03/24 08:45:33;;;;;;;;;;;;;;;21.51;44.05;99340.53;4967967;27;98159;-67
2023/03/24 08:48:00;;;;;;;;;;;;;;;21.63;44.07;99336.81;4952532;28;123613;-65
2023/03/24 08:50:28;;;;;;;;;;;;;;;21.71;44.14;99345.94;4954415;28;125832;-65
2023/03/24 08:52:54;;;;;;;;;;;;;;;21.72;43.99;99342.03;4959502;28;97999;-66
2023/03/24 08:55:20;;;;;;;;;;;;;;;21.70;44.23;99344.34;4957840;28;98115;-66
2023/03/24 08:57:46;;;;;;;;;;;;;;;21.64;44.51;99351.31;4953947;27;98518;-66
2023/03/24 09:00:14;;;;;;;;;;;;;;;21.54;44.56;99355.47;4955395;28;104135;-66
2023/03/24 09:02:43;;;;;;;;;;;;;;;21.44;44.61;99365.09;4956369;28;98114;-67
2023/03/24 09:05:10;;;;;;;;;;;;;;;21.37;44.91;99364.97;4955042;28;97884;-65
2023/03/24 09:07:36;;;;;;;;;;;;;;;21.33;45.02;99369.59;4956949;28;98619;-66
2023/03/24 09:10:03;;;;;;;;;;;;;;;21.35;44.86;99367.28;4955164;28;116069;-67
2023/03/24 09:12:29;;;;;;;;;;;;;;;21.34;44.81;99365.72;4954856;28;98440;-67
2023/03/24 09:14:55;;;;;;;;;;;;;;;21.27;45.11;99382.78;4954933;28;118907;-65
2023/03/24 09:17:21;;;;;;;;;;;;;;;21.20;45.07;99384.59;4954390;28;126362;-66
2023/03/24 09:19:47;;;;;;;;;;;;;;;21.15;45.12;99387.66;4957048;28;128409;-66
2023/03/24 09:22:18;;;;;;;;;;;;;;;21.14;45.10;99386.06;4956045;28;109132;-67
2023/03/24 09:24:44;;;;;;;;;;;;;;;21.13;45.03;99389.97;4955939;28;117772;-67
2023/03/24 09:27:10;;;;;;;;;;;;;;;21.11;45.03;99393.06;4953768;28;98936;-65
2023/03/24 09:29:36;;;;;;;;;;;;;;;21.09;45.03;99387.94;4956399;28;128454;-67
2023/03/24 09:32:05;;;;;;;;;;;;;;;21.09;45.05;99378.94;4951345;28;99188;-65
2023/03/24 09:34:32;;;;;;;;;;;;;;;21.09;44.94;99378.94;4952070;28;111538;-66
2023/03/24 09:36:59;;;;;;;;;;;;;;;21.11;44.97;99373.09;4959328;28;98840;-67
2023/03/24 09:39:25;;;;;;;;;;;;;;;21.22;44.88;99372.13;4960403;28;98286;-65
2023/03/24 09:41:51;;;;;;;;;;;;;;;21.39;44.67;99370.09;4956494;28;98483;-65
2023/03/24 09:44:25;;;;;;;;;;;;;;;21.45;44.59;99366.66;4954274;28;118156;-65
2023/03/24 09:47:00;;;;;;;;;;;;;;;21.48;44.82;99371.41;4968193;28;98254;-66
2023/03/24 09:49:28;;;;;;;;;;;;;;;21.56;44.75;99373.13;4968033;27;112804;-65
2023/03/24 09:52:08;;;;;;;;;;;;;;;21.64;44.56;99367.75;4959643;28;98184;-64
2023/03/24 09:54:45;;;;;;;;;;;;;;;21.68;44.65;99376.81;4951867;28;118713;-65
2023/03/24 09:57:22;;;;;;;;;;;;;;;21.87;44.37;99371.25;4948646;28;120802;-64
2023/03/24 09:59:48;;;;;;;;;;;;;;;22.19;43.94;99359.97;4950326;28;99992;-64
2023/03/24 10:02:17;;;;;;;;;;;;;;;22.61;43.39;99356.97;4948010;28;98282;-67
2023/03/24 10:04:43;;;;;;;;;;;;;;;22.91;43.46;99354.19;4951419;28;112617;-65
2023/03/24 10:07:15;;;;;;;;;;;;;;;23.22;43.37;99352.91;4953368;28;98266;-64
2023/03/24 10:09:41;;;;;;;;;;;;;;;23.15;43.62;99357.56;4950715;28;115772;-65
2023/03/24 10:12:16;;;;;;;;;;;;;;;23.29;43.50;99354.94;4947767;28;107280;-67
2023/03/24 10:15:05;;;;;;;;;;;;;;;23.99;42.91;99350.38;4956390;28;97836;-65
2023/03/24 10:17:42;;;;;;;;;;;;;;;24.71;42.07;99357.78;4953227;28;99144;-68
2023/03/24 10:20:33;;;;;;;;;;;;;;;25.29;41.71;99358.72;4958140;28;99040;-65
2023/03/24 10:23:19;;;;;;;;;;;;;;;25.78;41.57;99353.59;4950022;28;98113;-65
2023/03/24 10:26:01;;;;;;;;;;;;;;;25.57;42.09;99357.16;4975782;27;98075;-68
2023/03/24 10:28:32;;;;;;;;;;;;;;;25.50;42.58;99352.41;4955788;28;98074;-67
2023/03/24 10:30:59;;;;;;;;;;;;;;;25.49;42.83;99355.59;4952313;28;99010;-66
2023/03/24 10:33:25;;;;;;;;;;;;;;;25.55;42.54;99348.50;4951613;28;97949;-68
2023/03/24 10:36:02;;;;;;;;;;;;;;;25.71;42.69;99340.59;4953938;28;99514;-66
2023/03/24 10:38:28;;;;;;;;;;;;;;;25.97;42.49;99355.94;4943936;28;98951;-66
2023/03/24 10:40:54;;;;;;;;;;;;;;;26.45;41.92;99352.69;4950084;28;128176;-67
2023/03/24 10:43:20;;;;;;;;;;;;;;;27.52;40.80;99354.78;4950531;28;128086;-65
2023/03/24 10:45:48;;;;;;;;;;;;;;;27.63;41.28;99347.19;4954955;28;97710;-67
2023/03/24 10:48:14;;;;;;;;;;;;;;;29.32;39.35;99341.16;4950606;28;98770;-68
2023/03/24 10:50:43;;;;;;;;;;;;;;;30.22;38.91;99340.41;4966235;28;98880;-65
2023/03/24 10:53:19;;;;;;;;;;;;;;;29.46;40.24;99356.00;4951994;28;97813;-67
2023/03/24 10:55:46;;;;;;;;;;;;;;;29.53;40.85;99353.13;4952801;28;98230;-66
2023/03/24 10:58:27;;;;;;;;;;;;;;;29.11;41.17;99341.50;4948746;28;98801;-67
2023/03/24 11:00:53;;;;;;;;;;;;;;;29.13;41.03;99354.97;4965842;27;99027;-65
2023/03/24 11:03:29;;;;;;;;;;;;;;;29.01;41.49;99353.56;4952259;28;109129;-68
2023/03/24 11:06:00;;;;;;;;;;;;;;;28.79;42.10;99345.50;4943206;28;98218;-69
2023/03/24 11:08:31;;;;;;;;;;;;;;;28.79;41.95;99353.03;4966151;27;99106;-65
2023/03/24 11:10:57;;;;;;;;;;;;;;;28.43;42.16;99358.25;4956032;28;98545;-66
2023/03/24 11:13:30;;;;;;;;;;;;;;;27.98;43.04;99352.78;4951384;28;98004;-65
2023/03/24 11:16:12;;;;;;;;;;;;;;;27.78;42.90;99361.69;4955451;28;97965;-67
2023/03/24 11:18:53;;;;;;;;;;;;;;;27.64;42.97;99359.03;4953753;28;98422;-64
2023/03/24 11:21:19;;;;;;;;;;;;;;;27.33;43.54;99369.16;4949437;28;127421;-67
2023/03/24 11:23:45;;;;;;;;;;;;;;;27.01;43.80;99361.84;4982372;27;98137;-67
2023/03/24 11:26:21;;;;;;;;;;;;;;;26.67;43.92;99359.66;4952697;28;98725;-65
2023/03/24 11:28:51;;;;;;;;;;;;;;;26.70;43.77;99365.59;4952740;28;128331;-64
2023/03/24 11:31:29;;;;;;;;;;;;;;;26.74;43.88;99358.06;4949478;28;98398;-65
2023/03/24 11:34:15;;;;;;;;;;;;;;;26.80;43.53;99357.25;4952971;28;99195;-66
2023/03/24 11:36:57;;;;;;;;;;;;;;;26.62;43.65;99365.63;4950924;28;98132;-66
2023/03/24 11:39:27;;;;;;;;;;;;;;;26.36;43.91;99368.84;4950726;28;121332;-67
2023/03/24 11:42:03;;;;;;;;;;;;;;;26.20;44.18;99361.81;4980417;27;99323;-64
2023/03/24 11:44:31;;;;;;;;;;;;;;;26.10;44.12;99365.41;4949659;28;113201;-65
2023/03/24 11:46:58;;;;;;;;;;;;;;;26.14;44.21;99365.38;4952312;28;98108;-65
2023/03/24 11:49:30;;;;;;;;;;;;;;;26.17;43.83;99367.34;4956183;28;98385;-68
2023/03/24 11:51:56;;;;;;;;;;;;;;;26.26;43.83;99355.88;4954444;28;98492;-65
2023/03/24 11:54:34;;;;;;;;;;;;;;;26.39;43.55;99363.31;4953107;28;97935;-66
2023/03/24 11:57:03;;;;;;;;;;;;;;;26.79;42.94;99355.66;4955074;28;98316;-67
2023/03/24 11:59:36;;;;;;;;;;;;;;;27.12;42.64;99348.00;4963169;27;98410;-65
2023/03/24 12:02:14;;;;;;;;;;;;;;;26.99;43.05;99347.63;4952245;28;121614;-65
2023/03/24 12:05:08;;;;;;;;;;;;;;;27.30;42.59;99343.09;4952713;28;98433;-65
2023/03/24 12:07:38;;;;;;;;;;;;;;;27.59;42.67;99346.44;4952755;28;97891;-66
2023/03/24 12:10:10;;;;;;;;;;;;;;;27.74;42.42;99346.31;4954681;28;98180;-67
2023/03/24 12:12:55;;;;;;;;;;;;;;;27.84;42.61;99326.84;4953783;28;99050;-65
2023/03/24 12:15:39;;;;;;;;;;;;;;;27.86;42.32;99343.03;4952572;28;97978;-65
2023/03/24 12:18:14;;;;;;;;;;;;;;;27.65;42.85;99327.41;4950148;28;97866;-65
2023/03/24 12:20:54;;;;;;;;;;;;;;;27.59;42.93;99323.50;4953038;28;99052;-65
2023/03/24 12:23:32;;;;;;;;;;;;;;;27.71;42.61;99322.22;4952859;28;127947;-65
2023/03/24 12:26:22;;;;;;;;;;;;;;;27.87;42.46;99322.47;4950767;28;98017;-65
2023/03/24 12:29:19;;;;;;;;;;;;;;;27.98;42.49;99312.06;4965328;27;109985;-65
2023/03/24 12:32:06;;;;;;;;;;;;;;;27.88;42.98;99313.75;4953281;28;98742;-68
2023/03/24 12:34:54;;;;;;;;;;;;;;;27.60;43.21;99308.47;4952488;28;98822;-65
2023/03/24 12:37:38;;;;;;;;;;;;;;;27.40;43.44;99308.25;4957351;28;97992;-68
2023/03/24 12:40:10;;;;;;;;;;;;;;;27.25;43.35;99309.56;4981611;27;98038;-66
2023/03/24 12:42:40;;;;;;;;;;;;;;;27.15;43.54;99322.28;4949668;28;98389;-64
2023/03/24 12:45:12;;;;;;;;;;;;;;;27.06;43.61;99316.41;4951637;28;101570;-64
2023/03/24 12:48:26;;;;;;;;;;;;;;;26.97;43.85;99321.63;4969350;28;126796;-65
2023/03/24 12:50:55;;;;;;;;;;;;;;;26.67;43.82;99322.97;4954093;28;98065;-64
2023/03/24 12:53:28;;;;;;;;;;;;;;;26.37;44.17;99338.09;4955107;28;126232;-66
2023/03/24 12:55:59;;;;;;;;;;;;;;;26.00;44.32;99346.09;4953750;28;98457;-65
2023/03/24 12:58:37;;;;;;;;;;;;;;;25.66;44.80;99355.59;4956566;28;98413;-65
2023/03/24 13:01:28;;;;;;;;;;;;;;;25.34;44.99;99346.50;4967070;27;98118;-66